sensor_id;sensor_type;location;lat;lon;timestamp;P1;durP1;ratioP1;P2;durP2;ratioP2
43620;SDS011;29213;50.770;7.298;2022-08-19T00:02:25;12.02;;;10.80;;
43620;SDS011;29213;50.770;7.298;2022-08-19T00:04:50;12.07;;;10.88;;
43620;SDS011;29213;50.770;7.298;2022-08-19T00:07:20;12.52;;;11.32;;
43620;SDS011;29213;50.770;7.298;2022-08-19T00:09:45;11.75;;;10.60;;
43620;SDS011;29213;50.770;7.298;2022-08-19T00:12:11;11.95;;;10.85;;
43620;SDS011;29213;50.770;7.298;2022-08-19T00:14:36;12.20;;;11.07;;
43620;SDS011;29213;50.770;7.298;2022-08-19T00:17:03;11.55;;;10.45;;
43620;SDS011;29213;50.770;7.298;2022-08-19T00:19:31;12.02;;;10.82;;
43620;SDS011;29213;50.770;7.298;2022-08-19T00:21:57;12.70;;;11.50;;
43620;SDS011;29213;50.770;7.298;2022-08-19T00:24:24;14.43;;;12.80;;
43620;SDS011;29213;50.770;7.298;2022-08-19T00:26:51;13.95;;;12.55;;
43620;SDS011;29213;50.770;7.298;2022-08-19T00:29:18;13.18;;;11.80;;
43620;SDS011;29213;50.770;7.298;2022-08-19T00:31:45;13.20;;;12.00;;
43620;SDS011;29213;50.770;7.298;2022-08-19T00:34:11;12.10;;;10.95;;
43620;SDS011;29213;50.770;7.298;2022-08-19T00:36:38;13.52;;;12.23;;
43620;SDS011;29213;50.770;7.298;2022-08-19T00:39:04;12.13;;;11.02;;
43620;SDS011;29213;50.770;7.298;2022-08-19T00:41:30;12.02;;;10.85;;
43620;SDS011;29213;50.770;7.298;2022-08-19T00:46:33;12.75;;;11.50;;
43620;SDS011;29213;50.770;7.298;2022-08-19T00:49:02;12.45;;;11.32;;
43620;SDS011;29213;50.770;7.298;2022-08-19T00:51:34;12.30;;;11.10;;
43620;SDS011;29213;50.770;7.298;2022-08-19T00:54:01;13.93;;;12.55;;
43620;SDS011;29213;50.770;7.298;2022-08-19T00:56:28;12.93;;;11.57;;
43620;SDS011;29213;50.770;7.298;2022-08-19T00:58:56;12.63;;;11.43;;
43620;SDS011;29213;50.770;7.298;2022-08-19T01:01:23;12.55;;;11.30;;
43620;SDS011;29213;50.770;7.298;2022-08-19T01:03:49;13.48;;;12.18;;
43620;SDS011;29213;50.770;7.298;2022-08-19T01:06:14;13.05;;;11.85;;
43620;SDS011;29213;50.770;7.298;2022-08-19T01:08:40;12.13;;;11.02;;
43620;SDS011;29213;50.770;7.298;2022-08-19T01:11:06;12.23;;;11.05;;
43620;SDS011;29213;50.770;7.298;2022-08-19T01:13:33;13.52;;;12.02;;
43620;SDS011;29213;50.770;7.298;2022-08-19T01:16:02;13.52;;;11.73;;
43620;SDS011;29213;50.770;7.298;2022-08-19T01:18:30;13.82;;;11.90;;
43620;SDS011;29213;50.770;7.298;2022-08-19T01:20:58;14.00;;;12.52;;
43620;SDS011;29213;50.770;7.298;2022-08-19T01:23:28;13.20;;;11.80;;
43620;SDS011;29213;50.770;7.298;2022-08-19T01:26:09;12.77;;;11.57;;
43620;SDS011;29213;50.770;7.298;2022-08-19T01:28:36;12.50;;;11.30;;
43620;SDS011;29213;50.770;7.298;2022-08-19T01:31:03;12.77;;;11.48;;
43620;SDS011;29213;50.770;7.298;2022-08-19T01:33:29;11.95;;;10.75;;
43620;SDS011;29213;50.770;7.298;2022-08-19T01:36:06;12.75;;;11.45;;
43620;SDS011;29213;50.770;7.298;2022-08-19T01:38:35;13.52;;;11.93;;
43620;SDS011;29213;50.770;7.298;2022-08-19T01:41:03;12.65;;;11.35;;
43620;SDS011;29213;50.770;7.298;2022-08-19T01:43:29;13.05;;;11.75;;
43620;SDS011;29213;50.770;7.298;2022-08-19T01:45:54;13.00;;;11.70;;
43620;SDS011;29213;50.770;7.298;2022-08-19T01:48:20;12.98;;;11.77;;
43620;SDS011;29213;50.770;7.298;2022-08-19T01:50:45;12.88;;;11.57;;
43620;SDS011;29213;50.770;7.298;2022-08-19T01:53:12;12.98;;;11.68;;
43620;SDS011;29213;50.770;7.298;2022-08-19T01:55:40;12.07;;;10.88;;
43620;SDS011;29213;50.770;7.298;2022-08-19T01:58:19;12.30;;;11.10;;
43620;SDS011;29213;50.770;7.298;2022-08-19T02:00:47;13.85;;;12.45;;
43620;SDS011;29213;50.770;7.298;2022-08-19T02:03:13;12.73;;;11.52;;
43620;SDS011;29213;50.770;7.298;2022-08-19T02:05:41;12.88;;;11.55;;
43620;SDS011;29213;50.770;7.298;2022-08-19T02:08:07;12.40;;;11.20;;
43620;SDS011;29213;50.770;7.298;2022-08-19T02:10:33;12.25;;;11.05;;
43620;SDS011;29213;50.770;7.298;2022-08-19T02:12:59;12.07;;;10.95;;
43620;SDS011;29213;50.770;7.298;2022-08-19T02:15:24;12.57;;;11.35;;
43620;SDS011;29213;50.770;7.298;2022-08-19T02:17:50;12.70;;;11.50;;
43620;SDS011;29213;50.770;7.298;2022-08-19T02:20:17;12.48;;;11.27;;
43620;SDS011;29213;50.770;7.298;2022-08-19T02:22:42;12.77;;;11.48;;
43620;SDS011;29213;50.770;7.298;2022-08-19T02:25:12;12.13;;;10.88;;
43620;SDS011;29213;50.770;7.298;2022-08-19T02:27:39;13.13;;;11.82;;
43620;SDS011;29213;50.770;7.298;2022-08-19T02:30:06;13.05;;;11.73;;
43620;SDS011;29213;50.770;7.298;2022-08-19T02:32:33;13.15;;;11.80;;
43620;SDS011;29213;50.770;7.298;2022-08-19T02:34:58;12.02;;;10.80;;
43620;SDS011;29213;50.770;7.298;2022-08-19T02:37:24;12.10;;;10.90;;
43620;SDS011;29213;50.770;7.298;2022-08-19T02:40:08;12.73;;;11.52;;
43620;SDS011;29213;50.770;7.298;2022-08-19T02:42:34;14.13;;;12.73;;
43620;SDS011;29213;50.770;7.298;2022-08-19T02:44:59;13.07;;;11.77;;
43620;SDS011;29213;50.770;7.298;2022-08-19T02:47:25;12.65;;;11.45;;
43620;SDS011;29213;50.770;7.298;2022-08-19T02:49:50;12.35;;;11.05;;
43620;SDS011;29213;50.770;7.298;2022-08-19T02:52:16;12.10;;;10.82;;
43620;SDS011;29213;50.770;7.298;2022-08-19T02:54:41;12.75;;;11.45;;
43620;SDS011;29213;50.770;7.298;2022-08-19T02:57:07;12.48;;;11.32;;
43620;SDS011;29213;50.770;7.298;2022-08-19T02:59:33;12.52;;;11.27;;
43620;SDS011;29213;50.770;7.298;2022-08-19T03:01:58;12.43;;;11.23;;
43620;SDS011;29213;50.770;7.298;2022-08-19T03:04:23;12.52;;;11.23;;
43620;SDS011;29213;50.770;7.298;2022-08-19T03:06:49;12.13;;;11.00;;
43620;SDS011;29213;50.770;7.298;2022-08-19T03:09:15;13.52;;;12.23;;
43620;SDS011;29213;50.770;7.298;2022-08-19T03:11:42;12.82;;;11.43;;
43620;SDS011;29213;50.770;7.298;2022-08-19T03:14:08;12.73;;;11.52;;
43620;SDS011;29213;50.770;7.298;2022-08-19T03:16:36;13.05;;;11.75;;
43620;SDS011;29213;50.770;7.298;2022-08-19T03:19:16;12.00;;;10.80;;
43620;SDS011;29213;50.770;7.298;2022-08-19T03:21:44;13.40;;;12.10;;
43620;SDS011;29213;50.770;7.298;2022-08-19T03:24:10;11.80;;;10.60;;
43620;SDS011;29213;50.770;7.298;2022-08-19T03:26:40;12.93;;;11.35;;
43620;SDS011;29213;50.770;7.298;2022-08-19T03:29:08;12.13;;;10.93;;
43620;SDS011;29213;50.770;7.298;2022-08-19T03:31:35;12.20;;;11.00;;
43620;SDS011;29213;50.770;7.298;2022-08-19T03:34:02;12.40;;;11.20;;
43620;SDS011;29213;50.770;7.298;2022-08-19T03:36:28;13.00;;;11.73;;
43620;SDS011;29213;50.770;7.298;2022-08-19T03:38:55;12.23;;;11.05;;
43620;SDS011;29213;50.770;7.298;2022-08-19T03:41:27;12.32;;;11.13;;
43620;SDS011;29213;50.770;7.298;2022-08-19T03:43:55;11.93;;;10.65;;
43620;SDS011;29213;50.770;7.298;2022-08-19T03:46:23;12.27;;;11.07;;
43620;SDS011;29213;50.770;7.298;2022-08-19T03:48:55;12.65;;;11.35;;
43620;SDS011;29213;50.770;7.298;2022-08-19T03:51:23;12.90;;;11.60;;
43620;SDS011;29213;50.770;7.298;2022-08-19T03:53:51;12.10;;;10.97;;
43620;SDS011;29213;50.770;7.298;2022-08-19T03:56:18;12.27;;;11.07;;
43620;SDS011;29213;50.770;7.298;2022-08-19T03:58:44;12.85;;;11.55;;
43620;SDS011;29213;50.770;7.298;2022-08-19T04:01:12;13.00;;;11.25;;
43620;SDS011;29213;50.770;7.298;2022-08-19T04:03:40;11.77;;;10.68;;
43620;SDS011;29213;50.770;7.298;2022-08-19T04:06:16;12.88;;;11.35;;
43620;SDS011;29213;50.770;7.298;2022-08-19T04:08:44;12.25;;;10.98;;
43620;SDS011;29213;50.770;7.298;2022-08-19T04:11:11;12.43;;;11.13;;
43620;SDS011;29213;50.770;7.298;2022-08-19T04:13:38;12.80;;;11.55;;
43620;SDS011;29213;50.770;7.298;2022-08-19T04:16:04;12.82;;;11.50;;
43620;SDS011;29213;50.770;7.298;2022-08-19T04:18:32;12.82;;;11.63;;
43620;SDS011;29213;50.770;7.298;2022-08-19T04:20:58;12.90;;;11.60;;
43620;SDS011;29213;50.770;7.298;2022-08-19T04:23:24;12.60;;;11.30;;
43620;SDS011;29213;50.770;7.298;2022-08-19T04:25:50;12.18;;;10.98;;
43620;SDS011;29213;50.770;7.298;2022-08-19T04:28:15;13.38;;;11.65;;
43620;SDS011;29213;50.770;7.298;2022-08-19T04:30:42;12.80;;;11.50;;
43620;SDS011;29213;50.770;7.298;2022-08-19T04:33:10;12.20;;;11.02;;
43620;SDS011;29213;50.770;7.298;2022-08-19T04:35:38;12.07;;;10.88;;
43620;SDS011;29213;50.770;7.298;2022-08-19T04:38:08;11.98;;;10.82;;
43620;SDS011;29213;50.770;7.298;2022-08-19T04:40:39;12.15;;;10.90;;
43620;SDS011;29213;50.770;7.298;2022-08-19T04:43:25;12.45;;;11.25;;
43620;SDS011;29213;50.770;7.298;2022-08-19T04:45:50;12.23;;;10.93;;
43620;SDS011;29213;50.770;7.298;2022-08-19T04:48:16;12.50;;;11.30;;
43620;SDS011;29213;50.770;7.298;2022-08-19T04:50:55;12.65;;;11.35;;
43620;SDS011;29213;50.770;7.298;2022-08-19T04:53:25;12.55;;;11.25;;
43620;SDS011;29213;50.770;7.298;2022-08-19T04:55:53;12.23;;;11.02;;
43620;SDS011;29213;50.770;7.298;2022-08-19T04:58:23;11.38;;;10.27;;
43620;SDS011;29213;50.770;7.298;2022-08-19T05:00:49;12.20;;;10.98;;
43620;SDS011;29213;50.770;7.298;2022-08-19T05:03:15;13.23;;;11.85;;
43620;SDS011;29213;50.770;7.298;2022-08-19T05:05:42;12.27;;;11.10;;
43620;SDS011;29213;50.770;7.298;2022-08-19T05:08:10;14.15;;;11.85;;
43620;SDS011;29213;50.770;7.298;2022-08-19T05:10:37;12.30;;;11.10;;
43620;SDS011;29213;50.770;7.298;2022-08-19T05:13:03;12.82;;;11.38;;
43620;SDS011;29213;50.770;7.298;2022-08-19T05:15:29;12.05;;;10.80;;
43620;SDS011;29213;50.770;7.298;2022-08-19T05:17:57;12.30;;;11.00;;
43620;SDS011;29213;50.770;7.298;2022-08-19T05:20:42;12.40;;;11.10;;
43620;SDS011;29213;50.770;7.298;2022-08-19T05:23:26;12.25;;;10.95;;
43620;SDS011;29213;50.770;7.298;2022-08-19T05:25:51;12.10;;;10.90;;
43620;SDS011;29213;50.770;7.298;2022-08-19T05:28:17;11.68;;;10.48;;
43620;SDS011;29213;50.770;7.298;2022-08-19T05:30:44;12.10;;;10.68;;
43620;SDS011;29213;50.770;7.298;2022-08-19T05:33:11;13.38;;;10.68;;
43620;SDS011;29213;50.770;7.298;2022-08-19T05:35:37;11.95;;;10.75;;
43620;SDS011;29213;50.770;7.298;2022-08-19T05:38:04;12.23;;;10.85;;
43620;SDS011;29213;50.770;7.298;2022-08-19T05:40:33;12.32;;;10.90;;
43620;SDS011;29213;50.770;7.298;2022-08-19T05:43:01;11.45;;;10.13;;
43620;SDS011;29213;50.770;7.298;2022-08-19T05:45:27;11.52;;;10.43;;
43620;SDS011;29213;50.770;7.298;2022-08-19T05:47:53;12.52;;;11.23;;
43620;SDS011;29213;50.770;7.298;2022-08-19T05:50:19;12.23;;;10.95;;
43620;SDS011;29213;50.770;7.298;2022-08-19T05:52:45;12.60;;;11.30;;
43620;SDS011;29213;50.770;7.298;2022-08-19T05:55:10;12.80;;;11.50;;
43620;SDS011;29213;50.770;7.298;2022-08-19T05:57:36;12.60;;;11.40;;
43620;SDS011;29213;50.770;7.298;2022-08-19T06:00:03;13.25;;;11.48;;
43620;SDS011;29213;50.770;7.298;2022-08-19T06:02:34;16.80;;;15.10;;
43620;SDS011;29213;50.770;7.298;2022-08-19T06:05:00;14.65;;;13.05;;
43620;SDS011;29213;50.770;7.298;2022-08-19T06:07:27;13.60;;;12.20;;
43620;SDS011;29213;50.770;7.298;2022-08-19T06:09:54;13.35;;;12.05;;
43620;SDS011;29213;50.770;7.298;2022-08-19T06:12:19;13.90;;;12.50;;
43620;SDS011;29213;50.770;7.298;2022-08-19T06:14:51;19.70;;;17.60;;
43620;SDS011;29213;50.770;7.298;2022-08-19T06:17:17;14.98;;;13.48;;
43620;SDS011;29213;50.770;7.298;2022-08-19T06:19:43;14.75;;;13.18;;
43620;SDS011;29213;50.770;7.298;2022-08-19T06:22:08;14.25;;;12.75;;
43620;SDS011;29213;50.770;7.298;2022-08-19T06:24:38;14.82;;;12.10;;
43620;SDS011;29213;50.770;7.298;2022-08-19T06:27:03;13.77;;;12.38;;
43620;SDS011;29213;50.770;7.298;2022-08-19T06:29:30;13.38;;;12.07;;
43620;SDS011;29213;50.770;7.298;2022-08-19T06:31:58;13.40;;;12.10;;
43620;SDS011;29213;50.770;7.298;2022-08-19T06:34:25;14.80;;;13.30;;
43620;SDS011;29213;50.770;7.298;2022-08-19T06:36:53;13.93;;;12.52;;
43620;SDS011;29213;50.770;7.298;2022-08-19T06:39:21;12.80;;;11.50;;
43620;SDS011;29213;50.770;7.298;2022-08-19T06:41:50;16.55;;;12.43;;
43620;SDS011;29213;50.770;7.298;2022-08-19T06:44:18;13.75;;;12.35;;
43620;SDS011;29213;50.770;7.298;2022-08-19T06:46:44;15.48;;;13.73;;
43620;SDS011;29213;50.770;7.298;2022-08-19T06:49:10;15.57;;;13.98;;
43620;SDS011;29213;50.770;7.298;2022-08-19T06:51:39;16.65;;;15.05;;
43620;SDS011;29213;50.770;7.298;2022-08-19T06:54:07;17.40;;;15.57;;
43620;SDS011;29213;50.770;7.298;2022-08-19T06:56:38;20.67;;;15.50;;
43620;SDS011;29213;50.770;7.298;2022-08-19T06:59:05;17.45;;;14.88;;
43620;SDS011;29213;50.770;7.298;2022-08-19T07:03:59;20.75;;;18.55;;
43620;SDS011;29213;50.770;7.298;2022-08-19T07:06:26;19.25;;;17.25;;
43620;SDS011;29213;50.770;7.298;2022-08-19T07:08:52;22.83;;;20.33;;
43620;SDS011;29213;50.770;7.298;2022-08-19T07:11:17;18.85;;;16.95;;
43620;SDS011;29213;50.770;7.298;2022-08-19T07:13:44;21.30;;;19.10;;
43620;SDS011;29213;50.770;7.298;2022-08-19T07:16:16;22.90;;;20.42;;
43620;SDS011;29213;50.770;7.298;2022-08-19T07:18:44;23.85;;;19.58;;
43620;SDS011;29213;50.770;7.298;2022-08-19T07:21:15;24.98;;;22.42;;
43620;SDS011;29213;50.770;7.298;2022-08-19T07:23:43;18.73;;;16.80;;
43620;SDS011;29213;50.770;7.298;2022-08-19T07:26:13;22.30;;;20.02;;
43620;SDS011;29213;50.770;7.298;2022-08-19T07:28:44;27.23;;;23.83;;
43620;SDS011;29213;50.770;7.298;2022-08-19T07:31:14;21.70;;;19.35;;
43620;SDS011;29213;50.770;7.298;2022-08-19T07:33:43;21.42;;;17.10;;
43620;SDS011;29213;50.770;7.298;2022-08-19T07:36:10;21.38;;;19.17;;
43620;SDS011;29213;50.770;7.298;2022-08-19T07:38:38;19.27;;;17.27;;
43620;SDS011;29213;50.770;7.298;2022-08-19T07:41:09;17.48;;;15.68;;
43620;SDS011;29213;50.770;7.298;2022-08-19T07:43:37;20.02;;;17.92;;
43620;SDS011;29213;50.770;7.298;2022-08-19T07:46:03;20.75;;;17.88;;
43620;SDS011;29213;50.770;7.298;2022-08-19T07:48:29;23.70;;;21.02;;
43620;SDS011;29213;50.770;7.298;2022-08-19T07:50:56;20.13;;;18.05;;
43620;SDS011;29213;50.770;7.298;2022-08-19T07:53:29;24.65;;;22.05;;
43620;SDS011;29213;50.770;7.298;2022-08-19T07:55:56;20.60;;;18.27;;
43620;SDS011;29213;50.770;7.298;2022-08-19T07:58:29;21.67;;;19.50;;
43620;SDS011;29213;50.770;7.298;2022-08-19T08:00:57;24.83;;;22.17;;
43620;SDS011;29213;50.770;7.298;2022-08-19T08:03:23;24.35;;;21.83;;
43620;SDS011;29213;50.770;7.298;2022-08-19T08:06:08;28.13;;;25.13;;
43620;SDS011;29213;50.770;7.298;2022-08-19T08:08:52;26.20;;;23.30;;
43620;SDS011;29213;50.770;7.298;2022-08-19T08:11:36;23.20;;;20.80;;
43620;SDS011;29213;50.770;7.298;2022-08-19T08:14:07;23.00;;;20.63;;
43620;SDS011;29213;50.770;7.298;2022-08-19T08:16:34;26.20;;;21.70;;
43620;SDS011;29213;50.770;7.298;2022-08-19T08:19:01;24.05;;;21.33;;
43620;SDS011;29213;50.770;7.298;2022-08-19T08:21:28;21.52;;;19.23;;
43620;SDS011;29213;50.770;7.298;2022-08-19T08:23:53;18.92;;;17.00;;
43620;SDS011;29213;50.770;7.298;2022-08-19T08:26:20;20.63;;;18.40;;
43620;SDS011;29213;50.770;7.298;2022-08-19T08:28:48;28.02;;;25.10;;
43620;SDS011;29213;50.770;7.298;2022-08-19T08:31:14;21.50;;;19.33;;
43620;SDS011;29213;50.770;7.298;2022-08-19T08:33:39;24.05;;;21.48;;
43620;SDS011;29213;50.770;7.298;2022-08-19T08:36:07;20.98;;;18.13;;
43620;SDS011;29213;50.770;7.298;2022-08-19T08:38:34;23.38;;;20.17;;
43620;SDS011;29213;50.770;7.298;2022-08-19T08:41:02;22.08;;;19.17;;
43620;SDS011;29213;50.770;7.298;2022-08-19T08:43:39;21.63;;;18.15;;
43620;SDS011;29213;50.770;7.298;2022-08-19T08:46:10;21.70;;;19.38;;
43620;SDS011;29213;50.770;7.298;2022-08-19T08:48:48;17.70;;;15.90;;
43620;SDS011;29213;50.770;7.298;2022-08-19T08:51:20;20.02;;;17.80;;
43620;SDS011;29213;50.770;7.298;2022-08-19T08:53:52;15.27;;;13.27;;
43620;SDS011;29213;50.770;7.298;2022-08-19T08:56:20;16.20;;;14.60;;
43620;SDS011;29213;50.770;7.298;2022-08-19T08:58:57;12.00;;;10.80;;
43620;SDS011;29213;50.770;7.298;2022-08-19T09:01:26;14.13;;;12.10;;
43620;SDS011;29213;50.770;7.298;2022-08-19T09:03:52;15.15;;;13.27;;
43620;SDS011;29213;50.770;7.298;2022-08-19T09:06:22;13.38;;;11.55;;
43620;SDS011;29213;50.770;7.298;2022-08-19T09:08:57;15.38;;;13.77;;
43620;SDS011;29213;50.770;7.298;2022-08-19T09:14:19;15.18;;;13.65;;
43620;SDS011;29213;50.770;7.298;2022-08-19T09:16:59;11.18;;;9.52;;
43620;SDS011;29213;50.770;7.298;2022-08-19T09:19:28;12.10;;;10.90;;
43620;SDS011;29213;50.770;7.298;2022-08-19T09:21:54;11.77;;;10.50;;
43620;SDS011;29213;50.770;7.298;2022-08-19T09:24:20;8.52;;;7.63;;
43620;SDS011;29213;50.770;7.298;2022-08-19T09:26:45;10.65;;;9.55;;
43620;SDS011;29213;50.770;7.298;2022-08-19T09:29:11;10.48;;;9.20;;
43620;SDS011;29213;50.770;7.298;2022-08-19T09:31:37;8.82;;;7.78;;
43620;SDS011;29213;50.770;7.298;2022-08-19T09:34:03;10.70;;;9.60;;
43620;SDS011;29213;50.770;7.298;2022-08-19T09:36:31;10.93;;;9.63;;
43620;SDS011;29213;50.770;7.298;2022-08-19T09:38:58;11.50;;;9.85;;
43620;SDS011;29213;50.770;7.298;2022-08-19T09:41:25;11.27;;;10.10;;
43620;SDS011;29213;50.770;7.298;2022-08-19T09:43:51;8.80;;;7.90;;
43620;SDS011;29213;50.770;7.298;2022-08-19T09:46:19;9.55;;;8.55;;
43620;SDS011;29213;50.770;7.298;2022-08-19T09:48:46;11.10;;;8.60;;
43620;SDS011;29213;50.770;7.298;2022-08-19T09:51:14;10.30;;;8.95;;
43620;SDS011;29213;50.770;7.298;2022-08-19T09:53:42;9.17;;;7.37;;
43620;SDS011;29213;50.770;7.298;2022-08-19T09:56:10;10.20;;;8.87;;
43620;SDS011;29213;50.770;7.298;2022-08-19T09:58:36;10.07;;;8.77;;
43620;SDS011;29213;50.770;7.298;2022-08-19T10:01:03;7.10;;;6.05;;
43620;SDS011;29213;50.770;7.298;2022-08-19T10:03:31;10.57;;;7.78;;
43620;SDS011;29213;50.770;7.298;2022-08-19T10:05:58;9.45;;;7.32;;
43620;SDS011;29213;50.770;7.298;2022-08-19T10:08:27;11.77;;;8.17;;
43620;SDS011;29213;50.770;7.298;2022-08-19T10:10:54;9.93;;;8.68;;
43620;SDS011;29213;50.770;7.298;2022-08-19T10:13:21;8.93;;;7.30;;
43620;SDS011;29213;50.770;7.298;2022-08-19T10:15:50;9.05;;;8.10;;
43620;SDS011;29213;50.770;7.298;2022-08-19T10:18:16;12.32;;;9.50;;
43620;SDS011;29213;50.770;7.298;2022-08-19T10:20:44;8.50;;;7.10;;
43620;SDS011;29213;50.770;7.298;2022-08-19T10:23:11;12.13;;;9.48;;
43620;SDS011;29213;50.770;7.298;2022-08-19T10:25:37;9.38;;;7.80;;
43620;SDS011;29213;50.770;7.298;2022-08-19T10:28:02;10.70;;;9.60;;
43620;SDS011;29213;50.770;7.298;2022-08-19T10:30:29;9.00;;;7.53;;
43620;SDS011;29213;50.770;7.298;2022-08-19T10:32:54;10.23;;;9.05;;
43620;SDS011;29213;50.770;7.298;2022-08-19T10:35:20;11.35;;;10.05;;
43620;SDS011;29213;50.770;7.298;2022-08-19T10:37:45;8.35;;;7.43;;
43620;SDS011;29213;50.770;7.298;2022-08-19T10:40:11;10.73;;;9.45;;
43620;SDS011;29213;50.770;7.298;2022-08-19T10:42:37;10.77;;;9.52;;
43620;SDS011;29213;50.770;7.298;2022-08-19T10:45:03;11.88;;;9.70;;
43620;SDS011;29213;50.770;7.298;2022-08-19T10:47:31;13.95;;;12.55;;
43620;SDS011;29213;50.770;7.298;2022-08-19T10:49:57;12.23;;;10.68;;
43620;SDS011;29213;50.770;7.298;2022-08-19T10:52:44;12.10;;;10.82;;
43620;SDS011;29213;50.770;7.298;2022-08-19T10:55:11;14.38;;;12.90;;
43620;SDS011;29213;50.770;7.298;2022-08-19T10:57:55;11.25;;;10.02;;
43620;SDS011;29213;50.770;7.298;2022-08-19T11:00:25;11.32;;;9.65;;
43620;SDS011;29213;50.770;7.298;2022-08-19T11:02:51;12.20;;;10.90;;
43620;SDS011;29213;50.770;7.298;2022-08-19T11:05:17;14.70;;;13.15;;
43620;SDS011;29213;50.770;7.298;2022-08-19T11:07:43;14.40;;;12.05;;
43620;SDS011;29213;50.770;7.298;2022-08-19T11:10:10;14.85;;;12.63;;
43620;SDS011;29213;50.770;7.298;2022-08-19T11:12:38;16.33;;;14.57;;
43620;SDS011;29213;50.770;7.298;2022-08-19T11:15:06;13.23;;;11.82;;
43620;SDS011;29213;50.770;7.298;2022-08-19T11:17:37;12.00;;;10.43;;
43620;SDS011;29213;50.770;7.298;2022-08-19T11:20:08;13.65;;;11.68;;
43620;SDS011;29213;50.770;7.298;2022-08-19T11:22:36;12.68;;;9.85;;
43620;SDS011;29213;50.770;7.298;2022-08-19T11:25:01;13.15;;;11.50;;
43620;SDS011;29213;50.770;7.298;2022-08-19T11:27:27;12.15;;;10.85;;
43620;SDS011;29213;50.770;7.298;2022-08-19T11:29:53;12.75;;;11.27;;
43620;SDS011;29213;50.770;7.298;2022-08-19T11:32:19;11.85;;;10.23;;
43620;SDS011;29213;50.770;7.298;2022-08-19T11:34:45;11.70;;;8.90;;
43620;SDS011;29213;50.770;7.298;2022-08-19T11:37:10;13.40;;;11.38;;
43620;SDS011;29213;50.770;7.298;2022-08-19T11:39:36;9.77;;;8.10;;
43620;SDS011;29213;50.770;7.298;2022-08-19T11:42:02;11.20;;;9.25;;
43620;SDS011;29213;50.770;7.298;2022-08-19T11:44:52;9.95;;;8.60;;
43620;SDS011;29213;50.770;7.298;2022-08-19T11:47:19;9.48;;;8.25;;
43620;SDS011;29213;50.770;7.298;2022-08-19T11:49:45;9.23;;;7.95;;
43620;SDS011;29213;50.770;7.298;2022-08-19T11:52:11;9.60;;;8.60;;
43620;SDS011;29213;50.770;7.298;2022-08-19T11:54:42;10.07;;;8.15;;
43620;SDS011;29213;50.770;7.298;2022-08-19T11:57:08;9.25;;;7.40;;
43620;SDS011;29213;50.770;7.298;2022-08-19T11:59:33;10.48;;;9.02;;
43620;SDS011;29213;50.770;7.298;2022-08-19T12:01:58;9.38;;;8.38;;
43620;SDS011;29213;50.770;7.298;2022-08-19T12:04:24;9.70;;;8.70;;
43620;SDS011;29213;50.770;7.298;2022-08-19T12:06:49;10.25;;;8.23;;
43620;SDS011;29213;50.770;7.298;2022-08-19T12:09:15;7.25;;;6.10;;
43620;SDS011;29213;50.770;7.298;2022-08-19T12:11:42;11.15;;;10.00;;
43620;SDS011;29213;50.770;7.298;2022-08-19T12:14:10;8.98;;;8.00;;
43620;SDS011;29213;50.770;7.298;2022-08-19T12:16:36;8.32;;;6.85;;
43620;SDS011;29213;50.770;7.298;2022-08-19T12:19:03;7.57;;;6.55;;
43620;SDS011;29213;50.770;7.298;2022-08-19T12:21:30;11.40;;;8.93;;
43620;SDS011;29213;50.770;7.298;2022-08-19T12:23:59;9.88;;;7.80;;
43620;SDS011;29213;50.770;7.298;2022-08-19T12:26:26;8.30;;;7.10;;
43620;SDS011;29213;50.770;7.298;2022-08-19T12:28:54;7.75;;;6.72;;
43620;SDS011;29213;50.770;7.298;2022-08-19T12:31:20;8.95;;;7.85;;
43620;SDS011;29213;50.770;7.298;2022-08-19T12:33:46;8.25;;;6.47;;
43620;SDS011;29213;50.770;7.298;2022-08-19T12:36:12;7.47;;;6.40;;
43620;SDS011;29213;50.770;7.298;2022-08-19T12:38:40;7.47;;;6.28;;
43620;SDS011;29213;50.770;7.298;2022-08-19T12:41:07;10.10;;;7.88;;
43620;SDS011;29213;50.770;7.298;2022-08-19T12:43:35;9.63;;;7.57;;
43620;SDS011;29213;50.770;7.298;2022-08-19T12:46:01;10.10;;;8.52;;
43620;SDS011;29213;50.770;7.298;2022-08-19T12:48:29;8.40;;;7.50;;
43620;SDS011;29213;50.770;7.298;2022-08-19T12:50:55;7.60;;;6.80;;
43620;SDS011;29213;50.770;7.298;2022-08-19T12:53:21;9.05;;;7.03;;
43620;SDS011;29213;50.770;7.298;2022-08-19T12:55:47;6.82;;;5.90;;
43620;SDS011;29213;50.770;7.298;2022-08-19T12:58:12;7.88;;;6.47;;
43620;SDS011;29213;50.770;7.298;2022-08-19T13:00:38;8.35;;;6.32;;
43620;SDS011;29213;50.770;7.298;2022-08-19T13:03:04;7.32;;;5.57;;
43620;SDS011;29213;50.770;7.298;2022-08-19T13:05:30;7.63;;;5.93;;
43620;SDS011;29213;50.770;7.298;2022-08-19T13:07:57;8.60;;;6.35;;
43620;SDS011;29213;50.770;7.298;2022-08-19T13:10:31;6.93;;;5.77;;
43620;SDS011;29213;50.770;7.298;2022-08-19T13:13:02;6.45;;;5.47;;
43620;SDS011;29213;50.770;7.298;2022-08-19T13:15:33;6.53;;;5.40;;
43620;SDS011;29213;50.770;7.298;2022-08-19T13:18:02;5.95;;;5.32;;
43620;SDS011;29213;50.770;7.298;2022-08-19T13:20:27;5.53;;;4.97;;
43620;SDS011;29213;50.770;7.298;2022-08-19T13:22:53;5.85;;;5.25;;
43620;SDS011;29213;50.770;7.298;2022-08-19T13:25:19;6.90;;;5.80;;
43620;SDS011;29213;50.770;7.298;2022-08-19T13:27:45;6.35;;;5.63;;
43620;SDS011;29213;50.770;7.298;2022-08-19T13:30:12;7.32;;;6.22;;
43620;SDS011;29213;50.770;7.298;2022-08-19T13:32:57;6.82;;;5.75;;
43620;SDS011;29213;50.770;7.298;2022-08-19T13:35:42;7.50;;;6.28;;
43620;SDS011;29213;50.770;7.298;2022-08-19T13:38:10;6.00;;;4.82;;
43620;SDS011;29213;50.770;7.298;2022-08-19T13:40:36;6.95;;;6.18;;
43620;SDS011;29213;50.770;7.298;2022-08-19T13:43:02;7.22;;;6.22;;
43620;SDS011;29213;50.770;7.298;2022-08-19T13:45:29;7.93;;;5.93;;
43620;SDS011;29213;50.770;7.298;2022-08-19T13:47:59;6.72;;;6.03;;
43620;SDS011;29213;50.770;7.298;2022-08-19T13:50:29;6.55;;;5.82;;
43620;SDS011;29213;50.770;7.298;2022-08-19T13:52:58;5.30;;;4.70;;
43620;SDS011;29213;50.770;7.298;2022-08-19T13:55:24;6.80;;;5.70;;
43620;SDS011;29213;50.770;7.298;2022-08-19T13:57:52;7.63;;;6.07;;
43620;SDS011;29213;50.770;7.298;2022-08-19T14:00:18;6.22;;;4.60;;
43620;SDS011;29213;50.770;7.298;2022-08-19T14:02:45;5.15;;;4.38;;
43620;SDS011;29213;50.770;7.298;2022-08-19T14:05:12;5.75;;;4.60;;
43620;SDS011;29213;50.770;7.298;2022-08-19T14:10:07;5.57;;;4.30;;
43620;SDS011;29213;50.770;7.298;2022-08-19T14:12:34;6.05;;;5.28;;
43620;SDS011;29213;50.770;7.298;2022-08-19T14:15:00;5.13;;;4.10;;
43620;SDS011;29213;50.770;7.298;2022-08-19T14:17:27;7.00;;;4.97;;
43620;SDS011;29213;50.770;7.298;2022-08-19T14:19:57;8.18;;;4.85;;
43620;SDS011;29213;50.770;7.298;2022-08-19T14:22:23;7.45;;;4.78;;
43620;SDS011;29213;50.770;7.298;2022-08-19T14:24:48;7.57;;;5.55;;
43620;SDS011;29213;50.770;7.298;2022-08-19T14:27:15;6.78;;;5.88;;
43620;SDS011;29213;50.770;7.298;2022-08-19T14:29:41;6.78;;;5.35;;
43620;SDS011;29213;50.770;7.298;2022-08-19T14:32:06;7.60;;;5.40;;
43620;SDS011;29213;50.770;7.298;2022-08-19T14:34:32;6.25;;;5.40;;
43620;SDS011;29213;50.770;7.298;2022-08-19T14:36:59;7.72;;;5.85;;
43620;SDS011;29213;50.770;7.298;2022-08-19T14:39:24;6.80;;;5.60;;
43620;SDS011;29213;50.770;7.298;2022-08-19T14:41:50;9.20;;;5.95;;
43620;SDS011;29213;50.770;7.298;2022-08-19T14:44:17;10.05;;;6.30;;